Time;durP1;ratioP1;P1;durP2;ratioP2;P2;SDS_P1;SDS_P2;PMS_P1;PMS_P2;Temp;Humidity;BMP_temperature;BMP_pressure;BME280_temperature;BME280_humidity;BME280_pressure;Samples;Min_cycle;Max_cycle;Signal;HPM_P1;HPM_P2
2021/07/30 00:00:19;;;;;;;5.53;2.70;;;17.80;99.90;;;;;;5067828;28;20029;-83
2021/07/30 00:02:45;;;;;;;6.70;2.47;;;17.80;99.90;;;;;;5067892;28;20100;-83
2021/07/30 00:05:11;;;;;;;5.03;2.58;;;17.80;99.90;;;;;;5067285;28;20021;-83
2021/07/30 00:07:37;;;;;;;4.55;2.42;;;17.80;99.90;;;;;;5065130;28;20025;-83
2021/07/30 00:10:03;;;;;;;4.15;2.08;;;17.70;99.90;;;;;;5049447;28;20124;-82
2021/07/30 00:12:29;;;;;;;3.80;2.15;;;17.70;99.90;;;;;;5066639;28;20063;-82
2021/07/30 00:14:54;;;;;;;9.30;2.45;;;17.60;99.90;;;;;;5068005;28;20021;-82
2021/07/30 00:17:20;;;;;;;5.88;2.58;;;17.60;99.90;;;;;;5068097;28;20105;-82
2021/07/30 00:19:45;;;;;;;4.82;2.20;;;17.60;99.90;;;;;;5067751;28;20047;-82
2021/07/30 00:22:11;;;;;;;4.85;2.63;;;17.50;99.90;;;;;;5050536;28;20071;-82
2021/07/30 00:24:37;;;;;;;5.30;2.30;;;17.50;99.90;;;;;;5068760;28;20025;-82
2021/07/30 00:27:02;;;;;;;4.88;2.30;;;17.40;99.90;;;;;;5087887;28;20125;-82
2021/07/30 00:29:28;;;;;;;6.53;2.67;;;17.40;99.90;;;;;;5077898;28;20029;-82
2021/07/30 00:31:53;;;;;;;6.82;2.10;;;17.30;99.90;;;;;;5067069;28;20036;-84
2021/07/30 00:34:20;;;;;;;4.28;2.45;;;17.30;99.90;;;;;;5069863;28;20020;-83
2021/07/30 00:36:45;;;;;;;5.90;2.17;;;17.30;99.90;;;;;;5083579;28;20088;-82
2021/07/30 00:39:11;;;;;;;7.95;2.42;;;17.30;99.90;;;;;;5067874;28;20051;-82
2021/07/30 00:41:39;;;;;;;3.72;2.20;;;17.30;99.90;;;;;;5070241;28;20029;-82
2021/07/30 00:44:08;;;;;;;5.82;2.60;;;17.30;99.90;;;;;;5070092;28;20044;-82
2021/07/30 00:46:35;;;;;;;5.95;2.50;;;17.20;99.90;;;;;;5070004;28;20013;-82
2021/07/30 00:49:01;;;;;;;5.13;2.60;;;17.20;99.90;;;;;;5051532;28;20100;-82
2021/07/30 00:51:28;;;;;;;5.68;2.65;;;17.20;99.90;;;;;;5069379;28;20012;-84
2021/07/30 00:53:55;;;;;;;4.90;2.83;;;17.20;99.90;;;;;;5070461;28;20032;-83
2021/07/30 00:56:22;;;;;;;6.18;2.60;;;17.20;99.90;;;;;;5068990;28;20028;-83
2021/07/30 00:58:48;;;;;;;5.82;2.30;;;17.20;99.90;;;;;;5067753;28;20025;-82
2021/07/30 01:01:15;;;;;;;6.13;2.67;;;17.20;99.90;;;;;;5068559;28;20020;-82
2021/07/30 01:03:40;;;;;;;7.07;2.45;;;17.20;99.90;;;;;;5069020;28;20025;-82
2021/07/30 01:06:06;;;;;;;5.55;2.70;;;17.00;99.90;;;;;;5067782;28;20033;-85
2021/07/30 01:08:32;;;;;;;5.20;2.90;;;17.00;99.90;;;;;;5050382;28;20025;-82
2021/07/30 01:10:57;;;;;;;4.60;2.60;;;17.00;99.90;;;;;;5068974;28;20490;-82
2021/07/30 01:13:23;;;;;;;7.25;2.40;;;17.00;99.90;;;;;;5067195;28;20029;-82
2021/07/30 01:15:49;;;;;;;4.53;2.22;;;16.90;99.90;;;;;;5067739;28;20033;-82
2021/07/30 01:18:14;;;;;;;6.22;3.10;;;16.90;99.90;;;;;;5067777;28;20055;-82
2021/07/30 01:20:43;;;;;;;6.78;3.20;;;16.90;99.90;;;;;;5068249;28;20044;-82
2021/07/30 01:23:10;;;;;;;6.45;3.50;;;16.90;99.90;;;;;;5068044;28;20465;-82
2021/07/30 01:25:37;;;;;;;10.45;4.13;;;16.90;99.90;;;;;;5076660;28;20028;-82
2021/07/30 01:28:03;;;;;;;7.50;4.35;;;16.90;99.90;;;;;;5086031;28;20027;-82
2021/07/30 01:30:28;;;;;;;6.80;3.70;;;16.80;99.90;;;;;;5067791;28;20421;-82
2021/07/30 01:32:54;;;;;;;7.82;3.20;;;16.80;99.90;;;;;;5066219;28;20024;-82
2021/07/30 01:35:20;;;;;;;7.13;3.20;;;16.80;99.90;;;;;;5087438;28;20035;-83
2021/07/30 01:37:46;;;;;;;6.32;3.13;;;16.70;99.90;;;;;;5064559;28;20047;-82
2021/07/30 01:40:12;;;;;;;6.25;3.28;;;16.70;99.90;;;;;;5067661;28;20033;-82
2021/07/30 01:42:38;;;;;;;6.72;3.33;;;16.70;99.90;;;;;;5065784;28;20096;-82
2021/07/30 01:45:08;;;;;;;8.23;3.42;;;16.60;99.90;;;;;;5066648;28;20076;-82
2021/07/30 01:47:35;;;;;;;8.30;3.75;;;16.60;99.90;;;;;;5062667;28;20029;-82
2021/07/30 01:50:01;;;;;;;7.13;3.88;;;16.60;99.90;;;;;;5064637;28;20021;-82
2021/07/30 01:52:27;;;;;;;8.27;4.10;;;16.50;99.90;;;;;;5067015;28;20029;-82
2021/07/30 01:54:53;;;;;;;6.82;4.28;;;16.50;99.90;;;;;;5064376;28;20028;-82
2021/07/30 01:57:19;;;;;;;6.20;3.78;;;16.50;99.90;;;;;;5065688;28;20025;-82
2021/07/30 01:59:45;;;;;;;7.65;3.75;;;16.40;99.90;;;;;;5064359;28;20017;-82
2021/07/30 02:02:11;;;;;;;8.70;3.63;;;16.40;99.90;;;;;;5063275;28;20023;-82
2021/07/30 02:04:36;;;;;;;9.35;3.67;;;16.40;99.90;;;;;;5081946;28;20036;-82
2021/07/30 02:07:02;;;;;;;6.20;3.42;;;16.40;99.90;;;;;;5085870;28;20407;-82
2021/07/30 02:09:29;;;;;;;8.00;3.25;;;16.30;99.90;;;;;;5085404;28;20047;-82
2021/07/30 02:11:54;;;;;;;8.18;3.90;;;16.30;99.90;;;;;;5067444;28;20040;-83
2021/07/30 02:14:24;;;;;;;7.25;3.78;;;16.30;99.90;;;;;;5071944;28;20075;-82
2021/07/30 02:16:55;;;;;;;8.90;3.60;;;16.30;99.90;;;;;;5046512;28;20033;-82
2021/07/30 02:19:22;;;;;;;7.80;3.75;;;16.20;99.90;;;;;;5083400;28;20039;-82
2021/07/30 02:21:50;;;;;;;6.88;3.38;;;16.20;99.90;;;;;;5084022;28;20032;-82
2021/07/30 02:24:15;;;;;;;5.47;3.03;;;16.20;99.90;;;;;;5065433;28;20029;-82
2021/07/30 02:26:41;;;;;;;7.97;3.65;;;16.20;99.90;;;;;;5079499;28;20063;-82
2021/07/30 02:29:07;;;;;;;7.28;3.25;;;16.20;99.90;;;;;;5085820;28;20025;-82
2021/07/30 02:31:33;;;;;;;8.20;3.70;;;16.20;99.90;;;;;;5073049;28;20029;-82
2021/07/30 02:33:58;;;;;;;7.15;3.50;;;16.20;99.90;;;;;;5074256;28;20111;-82
2021/07/30 02:36:24;;;;;;;6.45;3.30;;;16.20;99.90;;;;;;5085067;28;20028;-82
2021/07/30 02:38:50;;;;;;;6.38;3.33;;;16.20;99.90;;;;;;5085784;28;20485;-81
2021/07/30 02:41:16;;;;;;;8.43;3.40;;;16.10;99.90;;;;;;5073733;28;20097;-83
2021/07/30 02:43:43;;;;;;;6.28;3.08;;;16.10;99.90;;;;;;5047555;28;20020;-82
2021/07/30 02:46:09;;;;;;;5.35;3.28;;;16.10;99.90;;;;;;5063266;28;20037;-82
2021/07/30 02:48:34;;;;;;;5.68;3.10;;;16.10;99.90;;;;;;5086307;28;20056;-82
2021/07/30 02:51:01;;;;;;;7.65;3.33;;;16.10;99.90;;;;;;5067402;28;20055;-82
2021/07/30 02:53:26;;;;;;;8.77;3.00;;;16.10;99.90;;;;;;5069664;28;20058;-82
2021/07/30 02:55:52;;;;;;;8.07;3.40;;;16.00;99.90;;;;;;5069419;28;20045;-82
2021/07/30 02:58:18;;;;;;;7.78;3.60;;;16.00;99.90;;;;;;5081680;28;20032;-82
2021/07/30 03:00:43;;;;;;;7.15;3.42;;;16.00;99.90;;;;;;5089183;28;20072;-82
2021/07/30 03:03:09;;;;;;;7.00;3.33;;;15.90;99.90;;;;;;5089586;28;20021;-82
2021/07/30 03:05:35;;;;;;;6.00;3.10;;;15.90;99.90;;;;;;5089669;28;20016;-82
2021/07/30 03:08:00;;;;;;;7.10;3.20;;;15.90;99.90;;;;;;5059027;28;20116;-82
2021/07/30 03:10:26;;;;;;;6.85;3.40;;;15.80;99.90;;;;;;5051393;28;20059;-82
2021/07/30 03:12:51;;;;;;;7.85;3.70;;;15.90;99.90;;;;;;5069561;28;20041;-83
2021/07/30 03:15:17;;;;;;;6.53;3.60;;;15.90;99.90;;;;;;5077577;28;20029;-82
2021/07/30 03:17:43;;;;;;;5.45;3.15;;;15.80;99.90;;;;;;5070708;28;20024;-82
2021/07/30 03:20:09;;;;;;;5.45;3.10;;;15.90;99.90;;;;;;5070327;28;20088;-82
2021/07/30 03:22:35;;;;;;;6.32;3.10;;;15.90;99.90;;;;;;5089024;28;20120;-83
2021/07/30 03:25:01;;;;;;;7.13;2.97;;;15.90;99.90;;;;;;5089127;28;20036;-82
2021/07/30 03:27:27;;;;;;;5.85;3.33;;;15.80;99.90;;;;;;5088214;28;20043;-82
2021/07/30 03:29:53;;;;;;;6.32;3.38;;;15.90;99.90;;;;;;5088342;28;20028;-82
2021/07/30 03:32:19;;;;;;;6.63;3.17;;;15.80;99.90;;;;;;5085859;28;20043;-82
2021/07/30 03:34:46;;;;;;;5.97;3.42;;;15.80;99.90;;;;;;5071124;28;20032;-82
2021/07/30 03:37:12;;;;;;;5.53;3.08;;;15.80;99.90;;;;;;5089023;28;20016;-82
2021/07/30 03:39:38;;;;;;;6.28;3.30;;;15.80;99.90;;;;;;5088426;28;20099;-82
2021/07/30 03:42:04;;;;;;;6.80;3.45;;;15.70;99.90;;;;;;5074556;28;20033;-82
2021/07/30 03:44:30;;;;;;;6.07;3.28;;;15.60;99.90;;;;;;5049143;28;20045;-82
2021/07/30 03:46:55;;;;;;;9.77;3.20;;;15.50;99.90;;;;;;5066792;28;20044;-82
2021/07/30 03:49:21;;;;;;;5.93;3.30;;;15.40;99.90;;;;;;5070406;28;20037;-82
2021/07/30 03:51:47;;;;;;;5.97;3.20;;;15.40;99.90;;;;;;5069918;28;20037;-82
2021/07/30 03:54:12;;;;;;;5.53;2.90;;;15.40;99.90;;;;;;5068974;28;20104;-82
2021/07/30 03:56:41;;;;;;;6.20;3.30;;;15.40;99.90;;;;;;5068918;28;20020;-82
2021/07/30 03:59:07;;;;;;;9.10;3.20;;;15.30;99.90;;;;;;5058438;28;20097;-83
2021/07/30 04:01:33;;;;;;;6.82;3.20;;;15.30;99.90;;;;;;5066111;28;20021;-82
2021/07/30 04:03:59;;;;;;;6.40;3.30;;;15.30;99.90;;;;;;5079665;28;20088;-82
2021/07/30 04:06:25;;;;;;;6.60;3.70;;;15.30;99.90;;;;;;5078288;28;20029;-82
2021/07/30 04:08:50;;;;;;;6.78;3.72;;;15.30;99.90;;;;;;5066060;28;20044;-82
2021/07/30 04:11:16;;;;;;;6.63;3.70;;;15.30;99.90;;;;;;5068065;28;20363;-82
2021/07/30 04:13:42;;;;;;;11.60;4.30;;;15.30;99.90;;;;;;5066988;28;20032;-82
2021/07/30 04:16:08;;;;;;;10.75;4.43;;;15.30;99.90;;;;;;5067315;28;20094;-82
2021/07/30 04:18:34;;;;;;;9.27;4.13;;;15.30;99.90;;;;;;5052715;28;20373;-82
2021/07/30 04:21:03;;;;;;;7.85;4.82;;;15.30;99.90;;;;;;5087327;28;20033;-82
2021/07/30 04:23:29;;;;;;;7.25;4.20;;;15.30;99.90;;;;;;5081366;28;20040;-82
2021/07/30 04:25:54;;;;;;;7.00;3.95;;;15.30;99.90;;;;;;5060020;28;20412;-82
2021/07/30 04:28:20;;;;;;;8.68;4.45;;;15.30;99.90;;;;;;5079061;28;20447;-82
2021/07/30 04:30:46;;;;;;;7.43;4.40;;;15.40;99.90;;;;;;5077709;28;20040;-82
2021/07/30 04:33:12;;;;;;;7.15;4.50;;;15.40;99.90;;;;;;5075981;28;20024;-82
2021/07/30 04:35:37;;;;;;;6.70;4.03;;;15.40;99.90;;;;;;5058614;28;20056;-82
2021/07/30 04:38:03;;;;;;;8.18;4.80;;;15.50;99.90;;;;;;5059591;28;20079;-82
2021/07/30 04:40:29;;;;;;;7.78;4.28;;;15.50;99.90;;;;;;5059324;28;20021;-82
2021/07/30 04:42:55;;;;;;;7.22;4.15;;;15.60;99.90;;;;;;5059490;28;20556;-82
2021/07/30 04:45:20;;;;;;;7.50;4.18;;;15.60;99.90;;;;;;5058853;28;20025;-82
2021/07/30 04:47:46;;;;;;;6.47;4.05;;;15.60;99.90;;;;;;5056904;28;20171;-82
2021/07/30 04:50:12;;;;;;;7.53;3.92;;;15.70;99.90;;;;;;5038638;28;20032;-82
2021/07/30 04:52:38;;;;;;;8.20;4.57;;;15.70;99.90;;;;;;5058836;28;20078;-81
2021/07/30 04:55:04;;;;;;;9.23;3.97;;;15.80;99.90;;;;;;5060447;28;20024;-82
2021/07/30 04:57:30;;;;;;;11.02;4.57;;;15.80;99.90;;;;;;5079088;28;20025;-82
2021/07/30 04:59:55;;;;;;;8.73;4.10;;;15.70;99.90;;;;;;5075592;28;20496;-82
2021/07/30 05:02:21;;;;;;;7.45;4.15;;;15.80;99.90;;;;;;5061726;28;20419;-82
2021/07/30 05:04:46;;;;;;;9.20;4.53;;;15.90;99.90;;;;;;5059368;28;20051;-82
2021/07/30 05:07:12;;;;;;;10.95;4.53;;;15.80;99.90;;;;;;5078193;28;20036;-82
2021/07/30 05:09:38;;;;;;;11.15;4.85;;;15.80;99.90;;;;;;5046557;28;20052;-82
2021/07/30 05:12:04;;;;;;;7.85;4.88;;;15.80;99.90;;;;;;5063516;28;20033;-82
2021/07/30 05:14:30;;;;;;;9.52;4.40;;;15.90;99.90;;;;;;5077994;28;20047;-82
2021/07/30 05:16:55;;;;;;;6.93;4.28;;;15.80;99.90;;;;;;5066150;28;20394;-82
2021/07/30 05:19:21;;;;;;;8.98;4.63;;;15.90;99.90;;;;;;5067485;28;20036;-82
2021/07/30 05:21:47;;;;;;;7.47;4.82;;;16.00;99.90;;;;;;5058551;28;20549;-82
2021/07/30 05:24:13;;;;;;;8.98;5.00;;;15.90;99.90;;;;;;5058364;28;20028;-82
2021/07/30 05:26:38;;;;;;;9.00;4.55;;;16.00;99.90;;;;;;5077540;28;20041;-82
2021/07/30 05:29:07;;;;;;;8.10;4.57;;;16.20;99.90;;;;;;5076433;28;20090;-82
2021/07/30 05:31:33;;;;;;;10.05;3.97;;;16.20;99.90;;;;;;5058127;28;20028;-82
2021/07/30 05:33:59;;;;;;;9.02;4.15;;;16.30;99.90;;;;;;5058191;28;20036;-82
2021/07/30 05:36:24;;;;;;;7.38;3.92;;;16.30;99.90;;;;;;5059844;28;20063;-82
2021/07/30 05:38:50;;;;;;;8.40;4.22;;;16.40;99.90;;;;;;5077873;28;20024;-82
2021/07/30 05:41:16;;;;;;;7.30;3.70;;;16.50;99.90;;;;;;5049615;28;20036;-82
2021/07/30 05:43:44;;;;;;;12.18;4.43;;;16.60;99.90;;;;;;5039508;28;20036;-83
2021/07/30 05:46:13;;;;;;;8.07;3.85;;;16.70;99.90;;;;;;5063959;28;20079;-83
2021/07/30 05:48:38;;;;;;;6.40;4.35;;;16.70;99.90;;;;;;5067025;28;20044;-83
2021/07/30 05:51:04;;;;;;;7.10;4.20;;;16.90;99.90;;;;;;5075843;28;20032;-83
2021/07/30 05:53:30;;;;;;;6.60;3.67;;;17.00;99.90;;;;;;5079211;28;20726;-83
2021/07/30 05:55:55;;;;;;;9.88;3.97;;;17.10;99.90;;;;;;5085492;28;20024;-83
2021/07/30 05:58:22;;;;;;;8.73;4.43;;;17.00;99.90;;;;;;5084029;28;20058;-82
2021/07/30 06:00:48;;;;;;;8.80;4.70;;;16.70;99.90;;;;;;5079181;28;20028;-83
2021/07/30 06:03:13;;;;;;;7.93;4.43;;;17.00;99.90;;;;;;5086344;28;20039;-83
2021/07/30 06:05:39;;;;;;;7.07;3.92;;;17.00;99.90;;;;;;5086501;28;20024;-83
2021/07/30 06:08:05;;;;;;;11.15;4.45;;;17.20;99.90;;;;;;5085012;28;20080;-83
2021/07/30 06:10:32;;;;;;;8.07;4.18;;;17.20;99.90;;;;;;5084309;28;20104;-83
2021/07/30 06:12:58;;;;;;;7.10;3.83;;;17.40;99.90;;;;;;5066650;28;20021;-83
2021/07/30 06:15:24;;;;;;;6.60;3.72;;;17.50;99.90;;;;;;5083454;28;20056;-83
2021/07/30 06:17:51;;;;;;;7.57;4.03;;;17.70;99.90;;;;;;5069785;28;20025;-84
2021/07/30 06:20:17;;;;;;;6.88;3.90;;;17.90;99.90;;;;;;5058934;28;20021;-83
2021/07/30 06:22:42;;;;;;;9.07;4.10;;;17.90;99.90;;;;;;5060469;28;20028;-83
2021/07/30 06:25:09;;;;;;;10.55;3.83;;;18.10;99.90;;;;;;5053886;28;20033;-84
2021/07/30 06:27:34;;;;;;;9.82;4.30;;;18.10;99.90;;;;;;5079133;28;20020;-83
2021/07/30 06:30:01;;;;;;;7.95;3.67;;;18.20;99.90;;;;;;5079474;28;20040;-84
2021/07/30 06:32:27;;;;;;;8.77;4.05;;;18.40;99.90;;;;;;5077653;28;20054;-84
2021/07/30 06:34:52;;;;;;;6.78;3.72;;;18.40;99.90;;;;;;5076099;28;20021;-84
2021/07/30 06:37:18;;;;;;;8.15;4.53;;;18.50;99.90;;;;;;5079853;28;20020;-84
2021/07/30 06:39:44;;;;;;;6.80;4.00;;;18.60;99.90;;;;;;5061328;28;20056;-83
2021/07/30 06:42:17;;;;;;;11.88;4.15;;;18.70;99.90;;;;;;5081233;28;20024;-83
2021/07/30 06:44:47;;;;;;;6.22;4.00;;;18.70;99.90;;;;;;5080687;28;20557;-83
2021/07/30 06:47:13;;;;;;;9.02;4.25;;;18.90;99.90;;;;;;5077096;28;20029;-84
2021/07/30 06:49:38;;;;;;;7.47;3.67;;;19.00;99.90;;;;;;5055576;28;20058;-84
2021/07/30 06:52:08;;;;;;;7.72;4.05;;;19.10;99.90;;;;;;5056162;28;20508;-84
2021/07/30 06:54:34;;;;;;;10.02;4.75;;;19.20;99.90;;;;;;5067669;28;20056;-84
2021/07/30 06:57:01;;;;;;;8.23;3.97;;;19.20;99.90;;;;;;5069643;28;20017;-84
2021/07/30 06:59:27;;;;;;;12.18;5.13;;;19.30;99.90;;;;;;5051366;28;20047;-85
2021/07/30 07:01:52;;;;;;;12.65;4.50;;;19.50;99.90;;;;;;5070278;28;20111;-84
2021/07/30 07:04:18;;;;;;;7.70;4.10;;;19.50;99.90;;;;;;5050849;28;20103;-84
2021/07/30 07:06:47;;;;;;;10.18;4.53;;;19.60;99.90;;;;;;5051008;28;20024;-84
2021/07/30 07:09:16;;;;;;;6.93;3.88;;;19.70;99.90;;;;;;5061541;28;20025;-84
2021/07/30 07:11:42;;;;;;;9.30;4.18;;;19.80;99.90;;;;;;5067639;28;20025;-84
2021/07/30 07:14:08;;;;;;;8.88;3.70;;;19.90;99.90;;;;;;5050326;28;20047;-84
2021/07/30 07:16:34;;;;;;;7.40;3.97;;;20.00;99.90;;;;;;5034502;28;20024;-84
2021/07/30 07:18:59;;;;;;;6.93;3.78;;;20.20;99.90;;;;;;5046516;28;20095;-84
2021/07/30 07:21:25;;;;;;;8.15;3.75;;;20.20;99.90;;;;;;5068864;28;20031;-84
2021/07/30 07:23:51;;;;;;;7.35;4.00;;;20.20;99.90;;;;;;5067814;28;20032;-84
2021/07/30 07:26:18;;;;;;;7.20;4.00;;;20.40;99.90;;;;;;5049481;28;20032;-84
2021/07/30 07:28:45;;;;;;;9.23;3.97;;;20.50;99.90;;;;;;5051133;28;20081;-84
2021/07/30 07:31:11;;;;;;;6.53;4.28;;;20.60;99.90;;;;;;5065541;28;20067;-84
2021/07/30 07:33:37;;;;;;;6.78;4.00;;;20.70;99.90;;;;;;5046129;23;20052;-82
2021/07/30 07:36:03;;;;;;;7.25;3.85;;;20.90;99.90;;;;;;5040414;28;20022;-82
2021/07/30 07:38:28;;;;;;;8.60;3.63;;;21.00;99.90;;;;;;5042807;28;20511;-83
2021/07/30 07:40:54;;;;;;;7.43;3.58;;;21.10;99.90;;;;;;5034519;28;20590;-84
2021/07/30 07:43:21;;;;;;;12.93;3.50;;;21.10;99.90;;;;;;5039472;28;20032;-83
2021/07/30 07:45:46;;;;;;;11.63;3.63;;;21.20;99.90;;;;;;5042505;28;20036;-83
2021/07/30 07:48:12;;;;;;;8.02;3.42;;;21.40;99.90;;;;;;5045172;28;20017;-83
2021/07/30 07:50:38;;;;;;;7.85;3.58;;;21.50;99.90;;;;;;5047353;28;20028;-83
2021/07/30 07:53:17;;;;;;;11.45;3.47;;;21.70;99.90;;;;;;5044146;28;20021;-82
2021/07/30 07:55:43;;;;;;;9.20;3.20;;;21.80;99.90;;;;;;5036875;28;20029;-82
2021/07/30 07:58:09;;;;;;;7.15;3.00;;;22.00;99.90;;;;;;5033582;28;20381;-82
2021/07/30 08:00:35;;;;;;;7.18;2.95;;;22.10;99.90;;;;;;5033775;28;20028;-83
2021/07/30 08:03:01;;;;;;;5.18;2.75;;;22.10;99.90;;;;;;5033549;28;20045;-83
2021/07/30 08:05:27;;;;;;;7.15;2.92;;;22.00;99.90;;;;;;5032946;28;20017;-83
2021/07/30 08:07:53;;;;;;;6.75;3.00;;;22.10;99.90;;;;;;5043065;28;20505;-83
2021/07/30 08:10:18;;;;;;;5.63;2.72;;;22.20;99.90;;;;;;5052519;28;20021;-82
2021/07/30 08:12:44;;;;;;;6.13;3.03;;;22.30;99.90;;;;;;5039184;28;20393;-83
2021/07/30 08:15:10;;;;;;;5.68;2.85;;;22.30;99.90;;;;;;5049220;28;20025;-83
2021/07/30 08:17:37;;;;;;;6.07;3.10;;;22.50;99.90;;;;;;5046576;28;20116;-83
2021/07/30 08:20:04;;;;;;;7.10;2.72;;;22.60;99.90;;;;;;5051899;28;20108;-83
2021/07/30 08:22:29;;;;;;;6.15;3.05;;;22.70;99.90;;;;;;5041214;28;20033;-83
2021/07/30 08:24:56;;;;;;;4.85;3.00;;;22.80;99.90;;;;;;5029454;28;20082;-83
2021/07/30 08:27:22;;;;;;;7.00;2.90;;;23.00;99.90;;;;;;5014340;28;20501;-83
2021/07/30 08:29:47;;;;;;;6.10;3.45;;;23.20;99.90;;;;;;5021234;28;20037;-83
2021/07/30 08:32:14;;;;;;;6.30;2.97;;;23.40;99.90;;;;;;5041500;28;20020;-83
2021/07/30 08:34:40;;;;;;;6.07;3.13;;;23.40;99.90;;;;;;5051355;28;20041;-83
2021/07/30 08:37:07;;;;;;;5.88;2.70;;;23.40;99.90;;;;;;5052223;28;20059;-83
2021/07/30 08:39:33;;;;;;;8.50;3.17;;;23.40;99.90;;;;;;5030000;28;20030;-83
2021/07/30 08:42:00;;;;;;;5.70;3.10;;;23.40;99.90;;;;;;5023589;28;20021;-84
2021/07/30 08:44:27;;;;;;;4.88;2.90;;;23.40;99.90;;;;;;5017743;28;20489;-83
2021/07/30 08:46:53;;;;;;;6.20;3.25;;;23.60;99.90;;;;;;5030978;28;20099;-83
2021/07/30 08:49:19;;;;;;;4.82;2.80;;;23.70;99.90;;;;;;5030063;28;20061;-83
2021/07/30 08:51:46;;;;;;;5.35;2.85;;;23.80;99.90;;;;;;5030716;28;20056;-83
2021/07/30 08:54:14;;;;;;;4.50;2.83;;;24.10;99.90;;;;;;5030843;28;20128;-83
2021/07/30 08:56:39;;;;;;;5.00;2.78;;;24.10;99.90;;;;;;5031695;28;20036;-83
2021/07/30 08:59:07;;;;;;;5.57;2.92;;;24.30;99.90;;;;;;5033435;28;20096;-83
2021/07/30 09:01:36;;;;;;;4.85;2.80;;;24.50;99.90;;;;;;5025349;28;20029;-84
2021/07/30 09:04:02;;;;;;;8.52;3.28;;;24.70;99.90;;;;;;5051131;28;20032;-83
2021/07/30 09:06:28;;;;;;;4.38;2.67;;;24.80;99.90;;;;;;5043995;28;20026;-84
2021/07/30 09:08:54;;;;;;;6.30;2.72;;;24.70;99.80;;;;;;5017132;28;20032;-83
2021/07/30 09:11:33;;;;;;;5.30;2.70;;;25.10;99.90;;;;;;5025773;28;20070;-84
2021/07/30 09:14:01;;;;;;;5.32;3.00;;;25.10;99.20;;;;;;5048358;28;20017;-83
2021/07/30 09:16:27;;;;;;;5.32;2.80;;;25.10;98.80;;;;;;5020479;28;20022;-83
2021/07/30 09:18:53;;;;;;;5.47;3.03;;;25.10;98.70;;;;;;5014269;28;20036;-84
2021/07/30 09:21:30;;;;;;;5.35;2.85;;;25.10;99.00;;;;;;5031241;28;20025;-83
2021/07/30 09:24:16;;;;;;;4.88;2.70;;;25.40;98.80;;;;;;5031442;28;20872;-83
2021/07/30 09:26:46;;;;;;;4.72;2.80;;;25.60;98.10;;;;;;5031652;28;20234;-84
2021/07/30 09:29:18;;;;;;;5.07;2.78;;;25.60;98.10;;;;;;5013793;28;20052;-84
2021/07/30 09:31:50;;;;;;;6.00;3.00;;;25.70;97.40;;;;;;5031318;28;20025;-84
2021/07/30 09:34:25;;;;;;;4.95;2.88;;;25.90;97.60;;;;;;5033075;28;20051;-84
2021/07/30 09:37:04;;;;;;;5.28;3.10;;;26.00;97.20;;;;;;5029524;28;20049;-83
2021/07/30 09:39:32;;;;;;;4.43;2.72;;;26.10;96.90;;;;;;5030842;28;20029;-84
2021/07/30 09:42:20;;;;;;;5.68;3.10;;;26.10;97.20;;;;;;5040911;28;20044;-84
2021/07/30 09:44:51;;;;;;;5.68;2.75;;;26.20;97.20;;;;;;5021699;28;20077;-84
2021/07/30 09:47:19;;;;;;;6.53;3.40;;;26.30;97.10;;;;;;5050212;28;20024;-84
2021/07/30 09:50:03;;;;;;;5.07;3.10;;;26.40;97.20;;;;;;5050014;28;20398;-84
2021/07/30 09:52:36;;;;;;;4.93;3.20;;;26.30;96.50;;;;;;5045204;28;20083;-83
2021/07/30 09:55:13;;;;;;;5.45;3.35;;;26.30;96.80;;;;;;5030502;28;20021;-83
2021/07/30 09:57:43;;;;;;;5.30;3.17;;;26.50;97.00;;;;;;5046655;28;20101;-84
2021/07/30 10:00:14;;;;;;;6.17;3.10;;;26.50;96.50;;;;;;5025734;28;20123;-84
2021/07/30 10:02:45;;;;;;;6.60;3.30;;;26.60;96.20;;;;;;5027364;28;20469;-84
2021/07/30 10:05:13;;;;;;;6.95;3.88;;;26.80;95.70;;;;;;5039339;28;20100;-84
2021/07/30 10:07:41;;;;;;;5.15;3.22;;;26.90;95.00;;;;;;5042915;28;20080;-84
2021/07/30 10:10:24;;;;;;;5.72;3.35;;;26.90;95.60;;;;;;5042670;28;20353;-84
2021/07/30 10:12:53;;;;;;;6.18;3.10;;;27.10;96.10;;;;;;5050683;28;20211;-84
2021/07/30 10:15:20;;;;;;;5.53;3.40;;;27.00;96.00;;;;;;5047850;28;20021;-84
2021/07/30 10:17:48;;;;;;;5.80;3.15;;;27.20;95.50;;;;;;5027615;28;20040;-84
2021/07/30 10:20:16;;;;;;;7.03;3.40;;;27.20;95.80;;;;;;5028706;28;20493;-85
2021/07/30 10:23:04;;;;;;;6.72;3.55;;;27.20;95.70;;;;;;5028941;28;20048;-85
2021/07/30 10:25:41;;;;;;;7.57;3.67;;;27.70;96.10;;;;;;5046475;28;20021;-84
2021/07/30 10:28:17;;;;;;;5.88;3.38;;;27.10;95.70;;;;;;5047264;28;20151;-84
2021/07/30 10:30:53;;;;;;;5.10;3.60;;;27.30;96.10;;;;;;5035989;28;20030;-84
2021/07/30 10:33:31;;;;;;;5.70;3.40;;;27.60;95.00;;;;;;5041161;28;20025;-84
2021/07/30 10:36:01;;;;;;;5.78;3.08;;;27.40;94.80;;;;;;5026033;28;20029;-84
2021/07/30 10:38:27;;;;;;;6.53;3.53;;;27.40;95.30;;;;;;5039653;28;20508;-85
2021/07/30 10:41:05;;;;;;;4.95;3.00;;;27.20;95.30;;;;;;5029805;28;20500;-84
2021/07/30 10:43:33;;;;;;;9.57;3.53;;;27.20;95.80;;;;;;5046815;28;20021;-84
2021/07/30 10:46:04;;;;;;;6.07;3.67;;;27.30;95.10;;;;;;5038602;28;20519;-84
2021/07/30 10:48:34;;;;;;;7.57;3.35;;;27.30;95.00;;;;;;5034358;28;20059;-84
2021/07/30 10:51:01;;;;;;;5.80;3.35;;;27.40;94.60;;;;;;5041980;28;20029;-84
2021/07/30 10:53:38;;;;;;;5.72;3.65;;;27.30;94.60;;;;;;5034914;28;20056;-85
2021/07/30 10:56:05;;;;;;;6.78;3.50;;;27.60;94.70;;;;;;5029137;28;20029;-84
2021/07/30 10:58:39;;;;;;;5.80;3.25;;;28.00;95.00;;;;;;5044857;28;20040;-84
2021/07/30 11:01:09;;;;;;;5.80;3.33;;;28.40;94.20;;;;;;5039300;28;20128;-84
2021/07/30 11:03:52;;;;;;;6.97;3.60;;;28.90;94.20;;;;;;5017458;28;20022;-85
2021/07/30 11:06:29;;;;;;;6.93;4.00;;;28.80;93.10;;;;;;5030155;28;20033;-85
2021/07/30 11:09:04;;;;;;;7.28;3.42;;;29.10;93.60;;;;;;5033383;28;20036;-84
2021/07/30 11:11:54;;;;;;;6.93;3.60;;;28.90;91.90;;;;;;5029460;28;20025;-83
2021/07/30 11:14:28;;;;;;;6.78;3.20;;;28.80;92.80;;;;;;5046350;28;20094;-81
2021/07/30 11:16:57;;;;;;;5.20;3.20;;;29.00;92.60;;;;;;5048637;28;20029;-81
2021/07/30 11:19:31;;;;;;;5.15;3.15;;;29.00;92.90;;;;;;5037316;28;20025;-82
2021/07/30 11:25:33;;;;;;;5.57;3.38;;;28.50;92.30;;;;;;5025718;28;20056;-81
2021/07/30 11:27:59;;;;;;;6.75;3.53;;;28.00;92.50;;;;;;5043224;28;20022;-81
2021/07/30 11:30:29;;;;;;;5.68;3.60;;;28.00;92.90;;;;;;5042124;28;20037;-82
2021/07/30 11:32:55;;;;;;;5.72;3.60;;;28.00;92.80;;;;;;5029931;28;20184;-81
2021/07/30 11:35:21;;;;;;;4.80;3.20;;;27.90;93.00;;;;;;5043923;28;20061;-81
2021/07/30 11:37:57;;;;;;;5.85;3.05;;;27.70;93.30;;;;;;5050747;28;20111;-81
2021/07/30 11:40:23;;;;;;;8.32;3.70;;;27.60;93.10;;;;;;5056268;28;20021;-81
2021/07/30 11:42:49;;;;;;;5.82;3.35;;;27.20;93.40;;;;;;5052522;28;20564;-82
2021/07/30 11:45:20;;;;;;;5.70;3.58;;;27.10;93.80;;;;;;5053216;28;20477;-82
2021/07/30 11:47:46;;;;;;;9.73;3.63;;;27.10;94.10;;;;;;5052595;28;20033;-81
2021/07/30 11:50:14;;;;;;;6.20;3.38;;;27.00;94.00;;;;;;5052539;28;20028;-82
2021/07/30 11:52:41;;;;;;;4.57;3.03;;;27.10;94.00;;;;;;5030002;28;20018;-82
2021/07/30 11:55:15;;;;;;;6.07;3.30;;;27.00;93.50;;;;;;5047986;28;20017;-82
2021/07/30 11:57:41;;;;;;;5.53;3.58;;;27.10;93.90;;;;;;5017337;28;20037;-82
2021/07/30 12:00:07;;;;;;;5.90;3.40;;;27.60;93.90;;;;;;5023460;28;20043;-82
2021/07/30 12:02:33;;;;;;;5.47;3.72;;;28.10;93.00;;;;;;5035688;28;20524;-82
2021/07/30 12:04:58;;;;;;;5.85;3.00;;;28.50;92.80;;;;;;5050507;28;20028;-82
2021/07/30 12:07:31;;;;;;;5.50;3.28;;;28.90;92.40;;;;;;5033534;28;20116;-83
2021/07/30 12:10:00;;;;;;;5.95;3.83;;;29.20;91.10;;;;;;5052779;28;20486;-83
2021/07/30 12:12:28;;;;;;;5.40;3.50;;;28.90;91.20;;;;;;5052843;28;20028;-82
2021/07/30 12:14:55;;;;;;;5.63;3.72;;;29.10;91.10;;;;;;5050912;28;20390;-82
2021/07/30 12:17:22;;;;;;;6.15;3.90;;;28.80;91.50;;;;;;5025233;28;20390;-82
2021/07/30 12:20:06;;;;;;;6.72;3.83;;;29.10;91.70;;;;;;5032394;28;20036;-83
2021/07/30 12:22:47;;;;;;;6.18;3.30;;;29.40;91.70;;;;;;5049211;28;20028;-83
2021/07/30 12:25:32;;;;;;;;;;;29.40;91.30;;;;;;5036772;28;20071;-82
2021/07/30 12:28:12;;;;;;;6.88;3.42;;;29.30;91.00;;;;;;5054459;28;19966;-84
2021/07/30 12:30:40;;;;;;;6.85;3.70;;;29.20;90.90;;;;;;5026881;28;20319;-83
2021/07/30 12:33:23;;;;;;;8.25;3.30;;;28.80;91.20;;;;;;5016437;28;20038;-83
2021/07/30 12:36:00;;;;;;;8.77;3.90;;;29.30;90.90;;;;;;5033599;28;20021;-82
2021/07/30 12:38:25;;;;;;;6.38;3.40;;;29.40;90.80;;;;;;5027818;28;20561;-82
2021/07/30 12:40:51;;;;;;;5.88;3.60;;;29.00;91.70;;;;;;5047649;28;20100;-82
2021/07/30 12:43:18;;;;;;;6.07;3.70;;;28.70;92.50;;;;;;5049264;28;20453;-82
2021/07/30 12:45:49;;;;;;;5.95;3.60;;;28.70;91.50;;;;;;5033666;28;20029;-82
2021/07/30 12:48:22;;;;;;;6.10;4.15;;;28.40;91.80;;;;;;5033222;28;20377;-82
2021/07/30 12:50:50;;;;;;;6.15;4.35;;;28.20;93.00;;;;;;5027999;28;20078;-85